sensor_id;sensor_type;location;lat;lon;timestamp;pressure;altitude;pressure_sealevel;temperature;humidity
61740;BME280;47645;45.288;12.038;2023-05-09T00:02:17;1018.6743957677588;;;16.6501953125;91.71257311665349
61740;BME280;47645;45.288;12.038;2023-05-09T00:12:17;1018.5670835977504;;;16.2017578125;94.10212195936624
61740;BME280;47645;45.288;12.038;2023-05-09T00:22:20;1018.6126203730919;;;16.5380859375;90.96614986881194
61740;BME280;47645;45.288;12.038;2023-05-09T00:32:20;1018.6177251350563;;;15.8296875;92.53509390316815
61740;BME280;47645;45.288;12.038;2023-05-09T00:42:21;1018.5552540982401;;;15.62578125;94.50053931619499
61740;BME280;47645;45.288;12.038;2023-05-09T00:52:25;1018.5215491716137;;;15.503515625;95.78112188353238
61740;BME280;47645;45.288;12.038;2023-05-09T01:02:23;1018.4284821445808;;;15.2587890625;98.65021812971464
61740;BME280;47645;45.288;12.038;2023-05-09T01:12:30;1018.3297051716867;;;15.0650390625;100
61740;BME280;47645;45.288;12.038;2023-05-09T01:22:32;1018.2179682592064;;;15.085546875;100
61740;BME280;47645;45.288;12.038;2023-05-09T01:32:27;1018.243862732049;;;15.1568359375;99.2231994101758
61740;BME280;47645;45.288;12.038;2023-05-09T01:52:29;1018.2377729606969;;;15.7939453125;93.19080226949357
61740;BME280;47645;45.288;12.038;2023-05-09T02:02:30;1018.2853911201929;;;15.533984375;94.56100141017235
61740;BME280;47645;45.288;12.038;2023-05-09T02:12:31;1018.343468513662;;;15.865234375;90.53699443709455
61740;BME280;47645;45.288;12.038;2023-05-09T02:22:32;1018.2388544454174;;;15.81953125;91.06280583586506
61740;BME280;47645;45.288;12.038;2023-05-09T02:32:34;1018.1833240321258;;;15.0396484375;96.70810555397873
61740;BME280;47645;45.288;12.038;2023-05-09T02:42:34;1018.1899083658136;;;15.2333984375;94.98652966669873
61740;BME280;47645;45.288;12.038;2023-05-09T02:52:35;1018.136519124101;;;15.2587890625;93.60489745725522
61740;BME280;47645;45.288;12.038;2023-05-09T03:02:36;1018.1718530038809;;;15.4015625;92.4490440314885
61740;BME280;47645;45.288;12.038;2023-05-09T03:12:38;1018.1607133810508;;;15.228125;92.81786797667989
61740;BME280;47645;45.288;12.038;2023-05-09T03:22:38;1018.0935554583039;;;14.9173828125;96.6864829485353
61740;BME280;47645;45.288;12.038;2023-05-09T03:32:39;1017.9980766900018;;;14.7236328125;97.81038429514483
61740;BME280;47645;45.288;12.038;2023-05-09T03:42:40;1017.9412430009168;;;14.8408203125;94.78112615124701
61740;BME280;47645;45.288;12.038;2023-05-09T03:52:41;1017.9904895700158;;;14.6267578125;99.02129318286926
61740;BME280;47645;45.288;12.038;2023-05-09T04:02:42;1018.0257232776426;;;14.9630859375;96.03507691927791
61740;BME280;47645;45.288;12.038;2023-05-09T04:12:43;1018.0428781565673;;;14.7083984375;98.08619589678572
61740;BME280;47645;45.288;12.038;2023-05-09T04:22:45;1018.11503050037;;;15.095703125;90.60744078820552
61740;BME280;47645;45.288;12.038;2023-05-09T04:32:46;1018.2436518013618;;;14.8205078125;96.09889402086316
61740;BME280;47645;45.288;12.038;2023-05-09T04:42:46;1018.2770470554091;;;15.2078125;90.91682592717119
61740;BME280;47645;45.288;12.038;2023-05-09T04:52:48;1018.325135643433;;;15.182421875;92.89232272308989
61740;BME280;47645;45.288;12.038;2023-05-09T05:02:48;1018.411468115905;;;15.2689453125;93.99153244535894
61740;BME280;47645;45.288;12.038;2023-05-09T05:12:49;1018.3765668102262;;;15.33515625;93.89239707429836
61740;BME280;47645;45.288;12.038;2023-05-09T05:22:51;1018.3947546587132;;;15.4626953125;91.79679961144647
61740;BME280;47645;45.288;12.038;2023-05-09T05:32:52;1018.3743387960376;;;15.503515625;90.56010674213033
61740;BME280;47645;45.288;12.038;2023-05-09T05:42:53;1018.4338796718256;;;16.0794921875;88.02306167876384
61740;BME280;47645;45.288;12.038;2023-05-09T05:52:54;1018.5537135612179;;;16.3291015625;85.143131735791
61740;BME280;47645;45.288;12.038;2023-05-09T06:02:55;1018.5473208146058;;;16.46171875;84.83125091520583
61740;BME280;47645;45.288;12.038;2023-05-09T06:12:56;1018.4860566746228;;;16.7572265625;83.16431010815351
61740;BME280;47645;45.288;12.038;2023-05-09T06:22:57;1018.5468544844485;;;16.98671875;80.03558084290114
61740;BME280;47645;45.288;12.038;2023-05-09T06:32:57;1018.4705563506491;;;17.5728515625;77.33153370934203
61740;BME280;47645;45.288;12.038;2023-05-09T06:42:59;1018.4106287046241;;;17.9041015625;75.51336551765144
61740;BME280;47645;45.288;12.038;2023-05-09T06:53:00;1018.4734235077983;;;18.3220703125;72.51446300178337
61740;BME280;47645;45.288;12.038;2023-05-09T07:03:01;1018.3306124140839;;;18.4240234375;71.4175091824897
61740;BME280;47645;45.288;12.038;2023-05-09T07:13:02;1018.5112331748112;;;18.6126953125;68.43755947224736
61740;BME280;47645;45.288;12.038;2023-05-09T07:23:03;1018.4723870717196;;;18.8267578125;69.51862202190559
61740;BME280;47645;45.288;12.038;2023-05-09T07:33:04;1018.4242252458786;;;19.0662109375;66.34434478931401
61740;BME280;47645;45.288;12.038;2023-05-09T07:43:05;1018.3269939890904;;;19.22421875;67.0015721055077
61740;BME280;47645;45.288;12.038;2023-05-09T07:53:06;1018.4083682808548;;;19.2396484375;66.13346380907751
61740;BME280;47645;45.288;12.038;2023-05-09T08:03:07;1018.3367768218205;;;19.1326171875;65.79692085545669
61740;BME280;47645;45.288;12.038;2023-05-09T08:13:09;1018.243180357826;;;19.43828125;65.84306625231373
61740;BME280;47645;45.288;12.038;2023-05-09T08:23:10;1018.1740193824933;;;19.316015625;66.2920887172795
61740;BME280;47645;45.288;12.038;2023-05-09T08:33:11;1018.098965918292;;;19.3873046875;66.85248105500004
61740;BME280;47645;45.288;12.038;2023-05-09T08:43:12;1018.1062367041968;;;19.1580078125;67.5090007676185
61740;BME280;47645;45.288;12.038;2023-05-09T08:53:13;1018.0984923378351;;;19.3720703125;66.5610714047667
61740;BME280;47645;45.288;12.038;2023-05-09T09:03:16;1018.0105494618597;;;20.0142578125;67.60846071545764
61740;BME280;47645;45.288;12.038;2023-05-09T09:18:28;1017.8252472738521;;;20.2080078125;67.85301385893757
61740;BME280;47645;45.288;12.038;2023-05-09T09:23:18;1017.8389928051824;;;20.89609375;65.6204583030616
61740;BME280;47645;45.288;12.038;2023-05-09T09:33:19;1017.7480173095688;;;21.5078125;63.827603061926425
61740;BME280;47645;45.288;12.038;2023-05-09T09:43:19;1017.5687155523838;;;21.6404296875;63.40036022113048
61740;BME280;47645;45.288;12.038;2023-05-09T09:53:21;1017.6235895781804;;;22.02265625;60.25379657987473
61740;BME280;47645;45.288;12.038;2023-05-09T10:03:22;1017.6036975356219;;;22.1501953125;61.31899732728839
61740;BME280;47645;45.288;12.038;2023-05-09T10:13:24;1017.5481712375896;;;23.1083984375;57.0733181456636
61740;BME280;47645;45.288;12.038;2023-05-09T10:23:25;1017.5442761869434;;;22.970703125;58.25745001468792
61740;BME280;47645;45.288;12.038;2023-05-09T10:33:35;1017.5508272616557;;;23.444921875;56.757956887120635
61740;BME280;47645;45.288;12.038;2023-05-09T10:43:28;1017.4909994453419;;;23.551953125;55.25388436589498
61740;BME280;47645;45.288;12.038;2023-05-09T10:53:48;1017.3879266946548;;;25.4837890625;53.327666275805065
61740;BME280;47645;45.288;12.038;2023-05-09T11:03:52;1017.412321859914;;;26.2177734375;46.93295262588794
61740;BME280;47645;45.288;12.038;2023-05-09T11:13:36;1017.4159384923047;;;25.22890625;45.32041670887113
61740;BME280;47645;45.288;12.038;2023-05-09T11:23:33;1017.0879281001954;;;26.0904296875;49.263734011004615
61740;BME280;47645;45.288;12.038;2023-05-09T11:33:36;1017.0983969445277;;;26.533984375;47.24510373128003
61740;BME280;47645;45.288;12.038;2023-05-09T11:43:37;1017.0902198421761;;;27.6451171875;40.434005104892506
61740;BME280;47645;45.288;12.038;2023-05-09T11:53:39;1016.8880406369291;;;26.641015625;44.084046920464964
61740;BME280;47645;45.288;12.038;2023-05-09T12:03:42;1016.9100713596404;;;26.9009765625;41.79228700411718
61740;BME280;47645;45.288;12.038;2023-05-09T12:13:46;1016.8856296763333;;;26.8091796875;44.48663757699869
61740;BME280;47645;45.288;12.038;2023-05-09T12:23:43;1016.860266293202;;;25.3767578125;43.3908158823116
61740;BME280;47645;45.288;12.038;2023-05-09T12:33:44;1016.7432060635277;;;26.3146484375;43.57038761753544
61740;BME280;47645;45.288;12.038;2023-05-09T12:43:47;1016.5821961183915;;;26.78359375;44.951773681406394
61740;BME280;47645;45.288;12.038;2023-05-09T12:53:48;1016.4259518945203;;;27.155859375;46.066771056392
61740;BME280;47645;45.288;12.038;2023-05-09T13:03:51;1016.2801703802274;;;29.5873046875;45.31385038943805
61740;BME280;47645;45.288;12.038;2023-05-09T13:13:53;1016.1519337836776;;;28.7462890625;37.64636404603182
61740;BME280;47645;45.288;12.038;2023-05-09T13:23:52;1016.045567259119;;;30.030859375;42.727388073265296
61740;BME280;47645;45.288;12.038;2023-05-09T13:33:54;1015.996025920407;;;28.165234375;37.16591722613543
61740;BME280;47645;45.288;12.038;2023-05-09T13:43:57;1015.823019968828;;;27.4158203125;41.38491864698161
61740;BME280;47645;45.288;12.038;2023-05-09T13:53:57;1015.6842121296254;;;28.0427734375;37.634593588911706
61740;BME280;47645;45.288;12.038;2023-05-09T14:03:59;1015.62606280699;;;28.87890625;37.17674331054442
61740;BME280;47645;45.288;12.038;2023-05-09T14:14:01;1015.5401473236956;;;27.981640625;35.17965346587917
61740;BME280;47645;45.288;12.038;2023-05-09T14:24:03;1015.3993880414579;;;27.19140625;43.965495972455884
61740;BME280;47645;45.288;12.038;2023-05-09T14:34:04;1015.3620383833617;;;27.4005859375;41.09921052427187
61740;BME280;47645;45.288;12.038;2023-05-09T14:44:06;1015.256058934736;;;27.991796875;39.165895344983234
61740;BME280;47645;45.288;12.038;2023-05-09T14:54:07;1015.1878261504015;;;28.06328125;40.275530958574834
61740;BME280;47645;45.288;12.038;2023-05-09T15:04:09;1015.0700116654532;;;28.4455078125;43.15545758778172
61740;BME280;47645;45.288;12.038;2023-05-09T15:14:11;1015.0756506064477;;;27.4412109375;34.328139349627
61740;BME280;47645;45.288;12.038;2023-05-09T15:24:12;1015.1220087321631;;;25.427734375;38.13103239624957
61740;BME280;47645;45.288;12.038;2023-05-09T15:34:14;1015.0424529389451;;;25.855859375;42.94055571363921
61740;BME280;47645;45.288;12.038;2023-05-09T15:44:16;1015.0509627945067;;;25.1931640625;42.392309537747956
61740;BME280;47645;45.288;12.038;2023-05-09T15:54:17;1014.9024394770049;;;26.146484375;45.033394630133486
61740;BME280;47645;45.288;12.038;2023-05-09T16:04:19;1014.7669056912791;;;26.360546875;47.742137181473815
61740;BME280;47645;45.288;12.038;2023-05-09T16:14:20;1014.7109053352713;;;26.85;49.85853559287825
61740;BME280;47645;45.288;12.038;2023-05-09T16:24:22;1014.5986077694433;;;26.6255859375;49.22705046983871
61740;BME280;47645;45.288;12.038;2023-05-09T16:34:23;1014.5193062586153;;;26.533984375;51.662921549648416
61740;BME280;47645;45.288;12.038;2023-05-09T16:44:25;1014.4201106563517;;;25.835546875;53.52271132569096
61740;BME280;47645;45.288;12.038;2023-05-09T16:54:26;1014.398372504398;;;25.40234375;54.70143195138578
61740;BME280;47645;45.288;12.038;2023-05-09T17:04:28;1014.5463280840136;;;24.8669921875;56.91351359496191
61740;BME280;47645;45.288;12.038;2023-05-09T17:14:29;1014.647575696222;;;24.3623046875;59.154000448579104
61740;BME280;47645;45.288;12.038;2023-05-09T17:24:31;1014.6276052486023;;;23.8271484375;59.87971415069467
61740;BME280;47645;45.288;12.038;2023-05-09T17:34:33;1014.6406427051838;;;23.4142578125;61.08553126800184
61740;BME280;47645;45.288;12.038;2023-05-09T17:44:34;1014.5362162805898;;;22.965625;61.41462162668754
61740;BME280;47645;45.288;12.038;2023-05-09T17:54:35;1014.5004574819033;;;22.512109375;64.2068823080071
61740;BME280;47645;45.288;12.038;2023-05-09T18:04:36;1014.4880983245713;;;22.1501953125;65.63605706499303
61740;BME280;47645;45.288;12.038;2023-05-09T18:14:38;1014.5463024966249;;;21.7423828125;67.38397406851675
61740;BME280;47645;45.288;12.038;2023-05-09T18:24:39;1014.6739376345001;;;21.298828125;68.01279383141251
61740;BME280;47645;45.288;12.038;2023-05-09T18:34:40;1014.6291787620113;;;21.0490234375;68.56196950626517
61740;BME280;47645;45.288;12.038;2023-05-09T18:44:41;1014.485855480723;;;20.66171875;69.61971232320721
61740;BME280;47645;45.288;12.038;2023-05-09T18:54:43;1014.3891080746289;;;20.442578125;69.39946159492973
61740;BME280;47645;45.288;12.038;2023-05-09T19:04:46;1014.3391459225573;;;20.1775390625;71.00862439303856
61740;BME280;47645;45.288;12.038;2023-05-09T19:14:45;1014.3013122060526;;;19.8919921875;71.81858188648982
61740;BME280;47645;45.288;12.038;2023-05-09T19:24:47;1014.3188733871699;;;19.7748046875;72.4469939378551
61740;BME280;47645;45.288;12.038;2023-05-09T19:34:48;1014.4037390350757;;;19.606640625;73.12598888017811
61740;BME280;47645;45.288;12.038;2023-05-09T19:44:52;1014.3528185565624;;;19.4689453125;73.40539261980258
61740;BME280;47645;45.288;12.038;2023-05-09T19:54:50;1014.372899668208;;;19.3720703125;73.73268760082593
61740;BME280;47645;45.288;12.038;2023-05-09T20:04:51;1014.2750237720035;;;19.2447265625;73.95538764717558
61740;BME280;47645;45.288;12.038;2023-05-09T20:14:52;1014.2782900158973;;;19.1732421875;74.21510128917899
61740;BME280;47645;45.288;12.038;2023-05-09T20:24:53;1014.2813835696214;;;19.0611328125;75.10158744995334
61740;BME280;47645;45.288;12.038;2023-05-09T20:34:54;1014.2979707889979;;;18.984765625;74.6556509932274
61740;BME280;47645;45.288;12.038;2023-05-09T20:44:55;1014.2467846524164;;;18.9185546875;74.79687444618193
61740;BME280;47645;45.288;12.038;2023-05-09T20:54:56;1014.159028446385;;;18.8318359375;75.48040943196727
61740;BME280;47645;45.288;12.038;2023-05-09T21:04:58;1014.1415897437473;;;18.48515625;77.21216653614657
61740;BME280;47645;45.288;12.038;2023-05-09T21:14:58;1014.061196064257;;;18.4341796875;77.41615088617225
61740;BME280;47645;45.288;12.038;2023-05-09T21:25:01;1014.0370180889632;;;18.5259765625;76.51915255218839
61740;BME280;47645;45.288;12.038;2023-05-09T21:35:01;1013.9646308315681;;;18.4392578125;77.39353746860468
61740;BME280;47645;45.288;12.038;2023-05-09T21:45:04;1013.8910441612088;;;18.6126953125;75.57583420893883
61740;BME280;47645;45.288;12.038;2023-05-09T21:55:04;1013.8263234880584;;;18.5921875;75.13360842861407
61740;BME280;47645;45.288;12.038;2023-05-09T22:00:07;1013.8206503382123;;;18.5208984375;75.52395486082065
61740;BME280;47645;45.288;12.038;2023-05-09T22:10:07;1013.7536795838255;;;18.3373046875;76.47075824411681
61740;BME280;47645;45.288;12.038;2023-05-09T22:20:07;1013.696501332556;;;18.1998046875;76.88751996301832
61740;BME280;47645;45.288;12.038;2023-05-09T22:30:10;1013.600129139383;;;17.644140625;86.98461709349895
61740;BME280;47645;45.288;12.038;2023-05-09T22:40:09;1013.5522643140955;;;17.4861328125;84.88062436874331
61740;BME280;47645;45.288;12.038;2023-05-09T22:50:11;1013.5275435036115;;;17.440234375;87.9428812094907
61740;BME280;47645;45.288;12.038;2023-05-09T23:00:11;1013.3989306510016;;;16.894921875;89.38719493637545
61740;BME280;47645;45.288;12.038;2023-05-09T23:10:11;1013.3973710777307;;;16.7318359375;90.89348168784532
61740;BME280;47645;45.288;12.038;2023-05-09T23:20:12;1013.192642829496;;;16.874609375;88.99192250632551
61740;BME280;47645;45.288;12.038;2023-05-09T23:30:13;1013.1653587178205;;;16.884765625;93.36850839886631
61740;BME280;47645;45.288;12.038;2023-05-09T23:40:14;1013.0580787664496;;;16.6298828125;90.39870969963006
61740;BME280;47645;45.288;12.038;2023-05-09T23:50:15;1012.8925930419376;;;16.6298828125;89.56238450237709
